sensor_id;sensor_type;location;lat;lon;timestamp;temperature;humidity
8206;DHT22;4144;51.826;4.788;2022-07-10T09:02:34;22.60;80.60
8206;DHT22;4144;51.826;4.788;2022-07-10T09:04:59;22.60;80.90
8206;DHT22;4144;51.826;4.788;2022-07-10T09:07:35;22.70;80.60
8206;DHT22;4144;51.826;4.788;2022-07-10T09:10:06;22.70;80.90
8206;DHT22;4144;51.826;4.788;2022-07-10T09:12:54;22.80;81.00
8206;DHT22;4144;51.826;4.788;2022-07-10T09:15:22;22.80;81.20
8206;DHT22;4144;51.826;4.788;2022-07-10T09:17:53;22.90;81.10
8206;DHT22;4144;51.826;4.788;2022-07-10T09:20:36;22.90;80.60
8206;DHT22;4144;51.826;4.788;2022-07-10T09:23:20;23.00;80.90
8206;DHT22;4144;51.826;4.788;2022-07-10T09:25:47;23.00;81.00
8206;DHT22;4144;51.826;4.788;2022-07-10T09:28:16;23.00;80.70
8206;DHT22;4144;51.826;4.788;2022-07-10T09:30:42;23.00;80.70
8206;DHT22;4144;51.826;4.788;2022-07-10T09:33:28;23.10;80.20
8206;DHT22;4144;51.826;4.788;2022-07-10T09:36:07;23.10;80.40
8206;DHT22;4144;51.826;4.788;2022-07-10T09:41:21;23.10;79.80
8206;DHT22;4144;51.826;4.788;2022-07-10T09:44:00;23.00;80.50
8206;DHT22;4144;51.826;4.788;2022-07-10T09:46:35;22.80;80.70
8206;DHT22;4144;51.826;4.788;2022-07-10T09:49:06;22.80;81.20
8206;DHT22;4144;51.826;4.788;2022-07-10T09:51:37;22.70;81.40
8206;DHT22;4144;51.826;4.788;2022-07-10T09:54:07;23.20;81.20
8206;DHT22;4144;51.826;4.788;2022-07-10T09:56:44;23.30;80.80
8206;DHT22;4144;51.826;4.788;2022-07-10T09:59:14;23.20;80.20
8206;DHT22;4144;51.826;4.788;2022-07-10T10:01:47;23.10;79.80
8206;DHT22;4144;51.826;4.788;2022-07-10T10:04:14;23.10;80.00
8206;DHT22;4144;51.826;4.788;2022-07-10T10:06:41;23.00;79.80
8206;DHT22;4144;51.826;4.788;2022-07-10T10:09:44;22.90;79.80
8206;DHT22;4144;51.826;4.788;2022-07-10T10:12:16;22.90;80.00
8206;DHT22;4144;51.826;4.788;2022-07-10T10:14:43;22.80;79.80
8206;DHT22;4144;51.826;4.788;2022-07-10T10:17:10;22.80;79.80
8206;DHT22;4144;51.826;4.788;2022-07-10T10:19:38;22.80;79.80
8206;DHT22;4144;51.826;4.788;2022-07-10T10:22:24;22.80;79.90
8206;DHT22;4144;51.826;4.788;2022-07-10T10:24:51;22.80;79.80
8206;DHT22;4144;51.826;4.788;2022-07-10T10:27:17;22.80;79.80
8206;DHT22;4144;51.826;4.788;2022-07-10T10:29:45;22.80;79.80
8206;DHT22;4144;51.826;4.788;2022-07-10T10:32:11;22.80;79.70
8206;DHT22;4144;51.826;4.788;2022-07-10T10:34:41;22.80;79.80
8206;DHT22;4144;51.826;4.788;2022-07-10T10:39:56;22.80;79.60
8206;DHT22;4144;51.826;4.788;2022-07-10T10:42:41;22.80;79.70
8206;DHT22;4144;51.826;4.788;2022-07-10T10:45:33;22.80;79.60
8206;DHT22;4144;51.826;4.788;2022-07-10T10:48:08;22.80;79.70
8206;DHT22;4144;51.826;4.788;2022-07-10T10:50:55;22.80;79.80
8206;DHT22;4144;51.826;4.788;2022-07-10T10:53:26;22.80;79.80
8206;DHT22;4144;51.826;4.788;2022-07-10T10:58:45;22.70;79.60
8206;DHT22;4144;51.826;4.788;2022-07-10T11:06:50;22.80;79.90
8206;DHT22;4144;51.826;4.788;2022-07-10T11:09:31;22.80;79.80
8206;DHT22;4144;51.826;4.788;2022-07-10T11:12:02;22.80;79.80
8206;DHT22;4144;51.826;4.788;2022-07-10T11:14:29;22.80;79.80
8206;DHT22;4144;51.826;4.788;2022-07-10T11:16:56;22.80;79.70
8206;DHT22;4144;51.826;4.788;2022-07-10T11:19:26;22.60;79.50
8206;DHT22;4144;51.826;4.788;2022-07-10T11:24:48;22.80;80.10
8206;DHT22;4144;51.826;4.788;2022-07-10T11:30:20;22.80;79.50
8206;DHT22;4144;51.826;4.788;2022-07-10T11:32:46;22.80;79.50
8206;DHT22;4144;51.826;4.788;2022-07-10T11:35:13;22.80;79.30
8206;DHT22;4144;51.826;4.788;2022-07-10T11:37:52;22.80;79.40
8206;DHT22;4144;51.826;4.788;2022-07-10T11:40:19;22.80;79.50
8206;DHT22;4144;51.826;4.788;2022-07-10T11:42:51;22.80;79.50
8206;DHT22;4144;51.826;4.788;2022-07-10T11:47:53;22.80;79.50
8206;DHT22;4144;51.826;4.788;2022-07-10T11:50:18;22.80;79.60
8206;DHT22;4144;51.826;4.788;2022-07-10T11:52:45;22.80;79.70
8206;DHT22;4144;51.826;4.788;2022-07-10T11:55:19;22.80;80.30
8206;DHT22;4144;51.826;4.788;2022-07-10T11:57:45;22.80;79.80
8206;DHT22;4144;51.826;4.788;2022-07-10T12:00:24;22.80;79.90
8206;DHT22;4144;51.826;4.788;2022-07-10T12:02:54;22.80;79.80
8206;DHT22;4144;51.826;4.788;2022-07-10T12:05:39;22.90;80.10
8206;DHT22;4144;51.826;4.788;2022-07-10T12:08:05;22.80;80.20
8206;DHT22;4144;51.826;4.788;2022-07-10T12:10:32;22.90;80.30
8206;DHT22;4144;51.826;4.788;2022-07-10T12:13:13;22.90;80.90
8206;DHT22;4144;51.826;4.788;2022-07-10T12:15:46;22.80;80.10
8206;DHT22;4144;51.826;4.788;2022-07-10T12:18:20;22.80;80.00
8206;DHT22;4144;51.826;4.788;2022-07-10T12:20:50;22.80;79.80
8206;DHT22;4144;51.826;4.788;2022-07-10T12:23:18;22.80;80.10
8206;DHT22;4144;51.826;4.788;2022-07-10T12:25:45;22.80;80.10
8206;DHT22;4144;51.826;4.788;2022-07-10T12:28:12;22.80;80.80
8206;DHT22;4144;51.826;4.788;2022-07-10T12:30:40;22.90;80.90
8206;DHT22;4144;51.826;4.788;2022-07-10T12:33:07;22.90;80.30
8206;DHT22;4144;51.826;4.788;2022-07-10T12:35:57;22.90;80.90
8206;DHT22;4144;51.826;4.788;2022-07-10T12:40:51;22.90;80.90
8206;DHT22;4144;51.826;4.788;2022-07-10T12:43:29;22.90;80.40
8206;DHT22;4144;51.826;4.788;2022-07-10T12:46:23;22.90;80.90
8206;DHT22;4144;51.826;4.788;2022-07-10T12:49:01;22.90;80.90
8206;DHT22;4144;51.826;4.788;2022-07-10T12:51:29;22.90;80.40
8206;DHT22;4144;51.826;4.788;2022-07-10T12:53:55;22.90;80.30
8206;DHT22;4144;51.826;4.788;2022-07-10T12:56:28;22.90;80.90
8206;DHT22;4144;51.826;4.788;2022-07-10T12:58:54;22.90;80.80
8206;DHT22;4144;51.826;4.788;2022-07-10T13:01:20;22.90;80.80
8206;DHT22;4144;51.826;4.788;2022-07-10T13:03:45;22.90;80.20
8206;DHT22;4144;51.826;4.788;2022-07-10T13:06:30;22.90;80.80
8206;DHT22;4144;51.826;4.788;2022-07-10T13:08:56;22.90;80.70
8206;DHT22;4144;51.826;4.788;2022-07-10T13:11:22;22.90;80.90
8206;DHT22;4144;51.826;4.788;2022-07-10T13:13:48;22.80;80.00
8206;DHT22;4144;51.826;4.788;2022-07-10T13:16:14;22.90;80.20
8206;DHT22;4144;51.826;4.788;2022-07-10T13:18:42;22.80;80.70
8206;DHT22;4144;51.826;4.788;2022-07-10T13:21:08;22.80;80.80
8206;DHT22;4144;51.826;4.788;2022-07-10T13:23:36;22.80;80.80
8206;DHT22;4144;51.826;4.788;2022-07-10T13:26:03;22.80;80.80
8206;DHT22;4144;51.826;4.788;2022-07-10T13:28:28;22.80;80.90
8206;DHT22;4144;51.826;4.788;2022-07-10T13:30:54;22.80;80.20
8206;DHT22;4144;51.826;4.788;2022-07-10T13:33:20;22.80;80.20
8206;DHT22;4144;51.826;4.788;2022-07-10T13:35:46;22.80;80.10
8206;DHT22;4144;51.826;4.788;2022-07-10T13:38:12;22.80;80.80
8206;DHT22;4144;51.826;4.788;2022-07-10T13:40:38;22.80;80.60
8206;DHT22;4144;51.826;4.788;2022-07-10T13:43:04;22.80;80.60
8206;DHT22;4144;51.826;4.788;2022-07-10T13:45:33;22.80;80.60
8206;DHT22;4144;51.826;4.788;2022-07-10T13:48:05;22.80;80.50
8206;DHT22;4144;51.826;4.788;2022-07-10T13:50:31;22.80;79.90
8206;DHT22;4144;51.826;4.788;2022-07-10T13:52:58;22.80;80.50
8206;DHT22;4144;51.826;4.788;2022-07-10T13:55:23;22.80;79.90
8206;DHT22;4144;51.826;4.788;2022-07-10T14:00:15;22.80;79.80
8206;DHT22;4144;51.826;4.788;2022-07-10T14:02:40;22.90;80.00
8206;DHT22;4144;51.826;4.788;2022-07-10T14:05:06;22.90;81.30
8206;DHT22;4144;51.826;4.788;2022-07-10T14:07:33;22.90;80.50
8206;DHT22;4144;51.826;4.788;2022-07-10T14:09:58;22.90;80.50
8206;DHT22;4144;51.826;4.788;2022-07-10T14:12:24;22.90;80.50
8206;DHT22;4144;51.826;4.788;2022-07-10T14:14:50;22.90;79.80
8206;DHT22;4144;51.826;4.788;2022-07-10T14:17:15;22.90;80.40
8206;DHT22;4144;51.826;4.788;2022-07-10T14:19:41;22.90;80.40
8206;DHT22;4144;51.826;4.788;2022-07-10T14:22:07;23.00;79.90
8206;DHT22;4144;51.826;4.788;2022-07-10T14:24:33;23.00;80.50
8206;DHT22;4144;51.826;4.788;2022-07-10T14:26:59;23.00;80.40
8206;DHT22;4144;51.826;4.788;2022-07-10T14:29:25;23.00;80.40
8206;DHT22;4144;51.826;4.788;2022-07-10T14:31:50;23.00;80.40
8206;DHT22;4144;51.826;4.788;2022-07-10T14:34:20;23.00;80.40
8206;DHT22;4144;51.826;4.788;2022-07-10T14:36:50;23.00;80.30
8206;DHT22;4144;51.826;4.788;2022-07-10T14:39:15;23.10;80.50
8206;DHT22;4144;51.826;4.788;2022-07-10T14:41:41;23.00;80.30
8206;DHT22;4144;51.826;4.788;2022-07-10T14:44:06;23.00;80.30
8206;DHT22;4144;51.826;4.788;2022-07-10T14:46:32;23.10;79.80
8206;DHT22;4144;51.826;4.788;2022-07-10T14:48:58;23.00;79.80
8206;DHT22;4144;51.826;4.788;2022-07-10T14:51:23;23.10;80.00
8206;DHT22;4144;51.826;4.788;2022-07-10T14:53:49;23.10;80.00
8206;DHT22;4144;51.826;4.788;2022-07-10T14:56:15;23.10;80.10
8206;DHT22;4144;51.826;4.788;2022-07-10T14:58:42;23.10;80.70
8206;DHT22;4144;51.826;4.788;2022-07-10T15:01:07;23.10;80.90
8206;DHT22;4144;51.826;4.788;2022-07-10T15:03:33;23.10;80.80
8206;DHT22;4144;51.826;4.788;2022-07-10T15:08:25;23.10;80.10
8206;DHT22;4144;51.826;4.788;2022-07-10T15:10:51;23.10;80.10
8206;DHT22;4144;51.826;4.788;2022-07-10T15:13:17;23.10;80.00
8206;DHT22;4144;51.826;4.788;2022-07-10T15:15:43;23.10;80.00
8206;DHT22;4144;51.826;4.788;2022-07-10T15:23:05;23.10;80.10
8206;DHT22;4144;51.826;4.788;2022-07-10T15:25:31;23.10;80.10
8206;DHT22;4144;51.826;4.788;2022-07-10T15:27:56;23.10;80.10
8206;DHT22;4144;51.826;4.788;2022-07-10T15:30:22;23.10;80.00
8206;DHT22;4144;51.826;4.788;2022-07-10T15:32:48;23.00;80.00
8206;DHT22;4144;51.826;4.788;2022-07-10T15:35:13;23.00;80.10
8206;DHT22;4144;51.826;4.788;2022-07-10T15:37:39;23.00;80.10
8206;DHT22;4144;51.826;4.788;2022-07-10T15:40:05;23.00;80.10
8206;DHT22;4144;51.826;4.788;2022-07-10T15:42:32;23.00;80.20
8206;DHT22;4144;51.826;4.788;2022-07-10T15:44:58;23.00;80.00
8206;DHT22;4144;51.826;4.788;2022-07-10T15:47:24;23.00;79.90
8206;DHT22;4144;51.826;4.788;2022-07-10T15:54:42;23.00;80.10
8206;DHT22;4144;51.826;4.788;2022-07-10T15:57:08;23.00;80.30
8206;DHT22;4144;51.826;4.788;2022-07-10T15:59:34;23.00;80.40
8206;DHT22;4144;51.826;4.788;2022-07-10T16:02:00;23.00;80.40
8206;DHT22;4144;51.826;4.788;2022-07-10T16:04:27;23.00;80.50
8206;DHT22;4144;51.826;4.788;2022-07-10T16:06:53;23.00;80.50
8206;DHT22;4144;51.826;4.788;2022-07-10T16:09:18;23.00;80.60
8206;DHT22;4144;51.826;4.788;2022-07-10T16:11:44;22.90;80.60
8206;DHT22;4144;51.826;4.788;2022-07-10T16:14:10;22.90;80.70
8206;DHT22;4144;51.826;4.788;2022-07-10T16:16:37;22.90;80.90
8206;DHT22;4144;51.826;4.788;2022-07-10T16:19:04;22.90;80.80
8206;DHT22;4144;51.826;4.788;2022-07-10T16:23:58;22.80;80.80
8206;DHT22;4144;51.826;4.788;2022-07-10T16:26:24;22.90;81.00
8206;DHT22;4144;51.826;4.788;2022-07-10T16:28:50;22.90;81.10
8206;DHT22;4144;51.826;4.788;2022-07-10T16:31:17;22.90;81.10
8206;DHT22;4144;51.826;4.788;2022-07-10T16:33:42;22.90;81.10
8206;DHT22;4144;51.826;4.788;2022-07-10T16:36:09;22.90;81.00
8206;DHT22;4144;51.826;4.788;2022-07-10T16:38:34;22.90;81.00
8206;DHT22;4144;51.826;4.788;2022-07-10T16:41:00;22.80;81.00
8206;DHT22;4144;51.826;4.788;2022-07-10T16:43:26;22.80;81.00
8206;DHT22;4144;51.826;4.788;2022-07-10T16:45:55;22.90;81.10
8206;DHT22;4144;51.826;4.788;2022-07-10T16:48:22;22.80;81.10
8206;DHT22;4144;51.826;4.788;2022-07-10T16:50:49;22.80;81.10
8206;DHT22;4144;51.826;4.788;2022-07-10T16:53:15;22.80;81.10
8206;DHT22;4144;51.826;4.788;2022-07-10T16:55:40;22.80;81.20
8206;DHT22;4144;51.826;4.788;2022-07-10T16:58:07;22.80;81.20
8206;DHT22;4144;51.826;4.788;2022-07-10T17:00:33;22.80;81.30
8206;DHT22;4144;51.826;4.788;2022-07-10T17:02:58;22.80;81.30
8206;DHT22;4144;51.826;4.788;2022-07-10T17:05:24;22.80;81.40
8206;DHT22;4144;51.826;4.788;2022-07-10T17:07:50;22.90;81.50
8206;DHT22;4144;51.826;4.788;2022-07-10T17:15:09;22.90;81.70
8206;DHT22;4144;51.826;4.788;2022-07-10T17:17:35;22.90;81.60
8206;DHT22;4144;51.826;4.788;2022-07-10T17:22:27;22.90;81.60
8206;DHT22;4144;51.826;4.788;2022-07-10T17:24:53;23.00;81.70
8206;DHT22;4144;51.826;4.788;2022-07-10T17:27:23;23.00;81.70
8206;DHT22;4144;51.826;4.788;2022-07-10T17:29:49;23.00;81.70
8206;DHT22;4144;51.826;4.788;2022-07-10T17:32:15;23.00;81.70
8206;DHT22;4144;51.826;4.788;2022-07-10T17:34:40;23.00;81.70
8206;DHT22;4144;51.826;4.788;2022-07-10T17:39:32;23.10;81.80
8206;DHT22;4144;51.826;4.788;2022-07-10T17:44:24;23.10;81.70
8206;DHT22;4144;51.826;4.788;2022-07-10T17:46:50;23.10;81.70
8206;DHT22;4144;51.826;4.788;2022-07-10T17:51:42;23.10;81.80
8206;DHT22;4144;51.826;4.788;2022-07-10T17:54:08;23.10;81.70
8206;DHT22;4144;51.826;4.788;2022-07-10T17:56:33;23.10;81.70
8206;DHT22;4144;51.826;4.788;2022-07-10T17:58:59;23.10;81.60
8206;DHT22;4144;51.826;4.788;2022-07-10T18:01:25;23.10;81.60
8206;DHT22;4144;51.826;4.788;2022-07-10T18:03:50;23.10;81.60
8206;DHT22;4144;51.826;4.788;2022-07-10T18:08:42;23.10;81.60
8206;DHT22;4144;51.826;4.788;2022-07-10T18:11:14;23.20;81.10
8206;DHT22;4144;51.826;4.788;2022-07-10T18:13:39;23.20;81.20
8206;DHT22;4144;51.826;4.788;2022-07-10T18:16:06;23.20;81.30
8206;DHT22;4144;51.826;4.788;2022-07-10T18:18:43;23.20;81.30
8206;DHT22;4144;51.826;4.788;2022-07-10T18:23:35;23.20;81.20
8206;DHT22;4144;51.826;4.788;2022-07-10T18:26:02;23.20;81.20
8206;DHT22;4144;51.826;4.788;2022-07-10T18:28:28;23.10;81.10
8206;DHT22;4144;51.826;4.788;2022-07-10T18:30:55;23.10;81.10
8206;DHT22;4144;51.826;4.788;2022-07-10T18:33:21;23.10;81.10
8206;DHT22;4144;51.826;4.788;2022-07-10T18:36:05;23.10;81.10
8206;DHT22;4144;51.826;4.788;2022-07-10T18:38:31;23.10;81.10
8206;DHT22;4144;51.826;4.788;2022-07-10T18:41:01;23.10;81.10
8206;DHT22;4144;51.826;4.788;2022-07-10T18:43:28;23.10;81.10
8206;DHT22;4144;51.826;4.788;2022-07-10T18:45:58;23.10;81.00
8206;DHT22;4144;51.826;4.788;2022-07-10T18:48:25;23.20;81.20
8206;DHT22;4144;51.826;4.788;2022-07-10T18:50:51;23.10;81.10
8206;DHT22;4144;51.826;4.788;2022-07-10T18:55:43;23.10;81.10
8206;DHT22;4144;51.826;4.788;2022-07-10T18:58:08;23.20;81.10
8206;DHT22;4144;51.826;4.788;2022-07-10T19:00:35;23.10;81.00
8206;DHT22;4144;51.826;4.788;2022-07-10T19:03:01;23.10;81.00
8206;DHT22;4144;51.826;4.788;2022-07-10T19:05:28;23.10;81.00
8206;DHT22;4144;51.826;4.788;2022-07-10T19:12:46;23.10;80.80
8206;DHT22;4144;51.826;4.788;2022-07-10T19:15:12;23.10;80.80
8206;DHT22;4144;51.826;4.788;2022-07-10T19:20:03;23.20;80.80
8206;DHT22;4144;51.826;4.788;2022-07-10T19:22:31;23.10;80.70
8206;DHT22;4144;51.826;4.788;2022-07-10T19:27:23;23.10;80.60
8206;DHT22;4144;51.826;4.788;2022-07-10T19:29:49;23.20;80.60
8206;DHT22;4144;51.826;4.788;2022-07-10T19:32:14;23.10;80.50
8206;DHT22;4144;51.826;4.788;2022-07-10T19:34:40;23.20;80.70
8206;DHT22;4144;51.826;4.788;2022-07-10T19:37:06;23.10;80.50
8206;DHT22;4144;51.826;4.788;2022-07-10T19:39:31;23.20;80.70
8206;DHT22;4144;51.826;4.788;2022-07-10T19:41:59;23.20;80.70
8206;DHT22;4144;51.826;4.788;2022-07-10T19:44:25;23.20;80.80
8206;DHT22;4144;51.826;4.788;2022-07-10T19:46:51;23.20;80.80
8206;DHT22;4144;51.826;4.788;2022-07-10T19:56:36;23.20;80.60
8206;DHT22;4144;51.826;4.788;2022-07-10T19:59:02;23.10;80.50
8206;DHT22;4144;51.826;4.788;2022-07-10T20:01:28;23.20;80.60
8206;DHT22;4144;51.826;4.788;2022-07-10T20:03:53;23.10;80.40
8206;DHT22;4144;51.826;4.788;2022-07-10T20:06:19;23.20;80.60
8206;DHT22;4144;51.826;4.788;2022-07-10T20:08:45;23.20;80.50
